Portada
METAR-TAF:

METAR-TAF

Aeropuertos :

Aeropuerto de Trapani-Birgi

Trapani, Italia

latitud: 37-55N, longitud: 012-30E, altitud: 7 m

Observación

El informe se hizo hace 47 minutos, a las 07:55 UTC
Viento 14 kt del sur-sureste
Temperatura 14°C
Humedad 77%
Presión 1023 hPa
Visibilidad 10 km o más
Nubes dispersas a una altura de 2500 ft

METAR: LICT 070755Z 15014KT 9999 SCT025 14/10 Q1023 RMK SCT VIS MIN 9999 WIND THR13 17010KT BLU

Hora: 09:42 (08:42 UTC)

Pronóstico

El informe se hizo hace 3 horas y 42 minutos, a las 05:00 UTC
Pronóstico válido del 07 a las 06 UTC al 07 a las 15 UTC
Viento 6 kt del sureste
Visibilidad 10 km o más
Escasas nubes a una altura de 3000 ft
Evolucionando progresivamente
del 07 a las 09 UTC al 07 a las 11 UTC
Viento 15 kt del sur

TAF: LICT 070500Z 0706/0715 14006KT 9999 FEW030 BECMG 0709/0711 17015KT

Observaciones y pronósticos meteorológicos de más de 4000 aeropuertos (mensajes METAR y TAF).

Los puntos amarillos y rojos representan las estaciones disponibles.

Ponga el ratón en el punto deseado para ver el nombre de la estación.

Haga clic para ver las observaciones y los pronósticos meteorológicos.

Para cambiar el mapa : haga clic en los botones verdes con una cruz de color negro para hacer un zoom, en el botón verde con un guión para alejar o en las flechas verdes para mapas adyacentes.


METAR-TAF: